createdAt,value
2023-10-30T00:01:10.811Z,2.30
2023-10-30T00:03:59.928Z,2.20
2023-10-30T00:06:47.882Z,1.95
2023-10-30T00:09:35.640Z,2.47
2023-10-30T00:12:23.866Z,2.50
2023-10-30T00:15:11.962Z,2.47
2023-10-30T00:17:59.504Z,2.67
2023-10-30T00:20:48.600Z,2.53
2023-10-30T00:23:37.545Z,2.40
2023-10-30T00:26:25.217Z,2.50
2023-10-30T00:29:13.917Z,2.30
2023-10-30T00:32:01.827Z,2.28
2023-10-30T00:34:49.386Z,2.10
2023-10-30T00:37:38.682Z,1.83
2023-10-30T00:40:27.418Z,2.30
2023-10-30T00:43:15.033Z,1.88
2023-10-30T00:46:02.753Z,1.73
2023-10-30T00:48:50.803Z,1.88
2023-10-30T00:51:38.943Z,1.73
2023-10-30T00:54:28.089Z,1.65
2023-10-30T00:57:16.127Z,1.88
2023-10-30T01:00:05.508Z,1.60
2023-10-30T01:02:53.326Z,1.83
2023-10-30T01:05:41.301Z,1.50
2023-10-30T01:08:29.657Z,1.55
2023-10-30T01:11:19.023Z,1.30
2023-10-30T01:14:06.631Z,1.40
2023-10-30T01:16:54.696Z,1.60
2023-10-30T01:19:42.121Z,1.42
2023-10-30T01:22:33.427Z,1.50
2023-10-30T01:25:21.505Z,1.73
2023-10-30T01:28:11.020Z,1.70
2023-10-30T01:30:58.514Z,1.60
2023-10-30T01:33:46.137Z,2.00
2023-10-30T01:36:33.981Z,1.70
2023-10-30T01:39:21.730Z,1.73
2023-10-30T01:42:09.412Z,1.50
2023-10-30T01:44:59.974Z,1.40
2023-10-30T01:47:47.694Z,1.42
2023-10-30T01:50:36.686Z,1.73
2023-10-30T01:53:25.929Z,1.50
2023-10-30T01:56:13.902Z,1.73
2023-10-30T01:59:02.357Z,1.42
2023-10-30T02:01:52.084Z,1.40
2023-10-30T02:04:42.319Z,1.30
2023-10-30T02:07:31.817Z,1.48
2023-10-30T02:10:19.825Z,1.50
2023-10-30T02:13:10.460Z,1.60
2023-10-30T02:15:57.975Z,1.92
2023-10-30T02:18:46.855Z,1.70
2023-10-30T02:21:34.780Z,1.70
2023-10-30T02:24:23.651Z,1.40
2023-10-30T02:27:12.894Z,1.65
2023-10-30T02:30:00.755Z,1.73
2023-10-30T02:32:48.865Z,1.63
2023-10-30T02:35:38.228Z,1.70
2023-10-30T02:38:25.748Z,1.80
2023-10-30T02:41:15.897Z,1.83
2023-10-30T02:44:05.808Z,1.70
2023-10-30T02:46:53.652Z,1.70
2023-10-30T02:49:41.351Z,1.52
2023-10-30T02:52:30.546Z,1.90
2023-10-30T02:55:18.190Z,2.05
2023-10-30T02:58:05.781Z,2.15
2023-10-30T03:00:57.478Z,2.10
2023-10-30T03:03:45.098Z,2.17
2023-10-30T03:06:33.227Z,2.08
2023-10-30T03:09:21.516Z,2.38
2023-10-30T03:12:09.622Z,2.20
2023-10-30T03:14:57.660Z,2.30
2023-10-30T03:17:47.024Z,2.22
2023-10-30T03:20:34.605Z,2.83
2023-10-30T03:23:22.460Z,2.25
2023-10-30T03:26:10.070Z,2.40
2023-10-30T03:28:57.913Z,2.67
2023-10-30T03:31:46.480Z,2.55
2023-10-30T03:34:37.557Z,2.30
2023-10-30T03:37:25.369Z,2.20
2023-10-30T03:40:14.899Z,2.13
2023-10-30T03:43:02.573Z,2.30
2023-10-30T03:45:50.317Z,2.10
2023-10-30T03:48:38.137Z,2.10
2023-10-30T03:51:27.650Z,1.95
2023-10-30T03:54:15.519Z,2.38
2023-10-30T03:57:03.300Z,1.95
2023-10-30T03:59:50.756Z,1.88
2023-10-30T04:02:38.690Z,1.73
2023-10-30T04:05:26.417Z,1.40
2023-10-30T04:08:15.399Z,1.67
2023-10-30T04:11:11.511Z,1.60
2023-10-30T04:13:59.302Z,1.70
2023-10-30T04:16:46.964Z,1.50
2023-10-30T04:19:34.925Z,1.40
2023-10-30T04:22:23.235Z,1.77
2023-10-30T04:25:13.342Z,1.75
2023-10-30T04:28:01.293Z,1.52
2023-10-30T04:30:49.296Z,1.58
2023-10-30T04:33:37.498Z,1.30
2023-10-30T04:36:25.196Z,1.50
2023-10-30T04:39:14.682Z,1.90
2023-10-30T04:42:03.953Z,2.00
2023-10-30T04:44:51.571Z,1.88
2023-10-30T04:47:39.318Z,1.77
2023-10-30T04:50:27.369Z,1.80
2023-10-30T04:53:15.163Z,2.00
2023-10-30T04:56:05.172Z,2.05
2023-10-30T04:58:56.422Z,2.00
2023-10-30T05:01:44.094Z,2.00
2023-10-30T05:04:34.322Z,1.90
2023-10-30T05:07:22.609Z,1.90
2023-10-30T05:10:10.985Z,1.50
2023-10-30T05:12:59.016Z,1.75
2023-10-30T05:15:48.129Z,1.85
2023-10-30T05:18:35.916Z,1.50
2023-10-30T05:21:26.247Z,1.85
2023-10-30T05:24:13.823Z,1.70
2023-10-30T05:27:01.557Z,1.80
2023-10-30T05:29:49.315Z,1.60
2023-10-30T05:32:38.766Z,2.08
2023-10-30T05:35:26.812Z,1.63
2023-10-30T05:38:14.321Z,1.60
2023-10-30T05:41:02.014Z,1.92
2023-10-30T05:43:51.396Z,1.65
2023-10-30T05:46:39.287Z,1.67
2023-10-30T05:49:29.136Z,2.25
2023-10-30T05:52:16.955Z,2.33
2023-10-30T05:55:04.781Z,2.15
2023-10-30T05:57:54.376Z,2.22
2023-10-30T06:00:42.218Z,2.00
2023-10-30T06:03:30.102Z,2.22
2023-10-30T06:06:19.196Z,2.30
2023-10-30T06:09:07.481Z,2.08
2023-10-30T06:11:56.223Z,2.13
2023-10-30T06:14:43.968Z,2.00
2023-10-30T06:17:32.658Z,1.90
2023-10-30T06:20:21.565Z,2.65
2023-10-30T06:23:10.953Z,2.40
2023-10-30T06:25:58.700Z,2.97
2023-10-30T06:28:46.798Z,2.75
2023-10-30T06:31:34.940Z,2.25
2023-10-30T06:34:22.920Z,2.70
2023-10-30T06:37:11.184Z,2.50
2023-10-30T06:40:00.502Z,2.22
2023-10-30T06:42:48.217Z,2.08
2023-10-30T06:45:35.994Z,2.58
2023-10-30T06:48:23.485Z,2.85
2023-10-30T06:51:10.880Z,2.20
2023-10-30T06:53:58.707Z,2.53
2023-10-30T06:56:47.929Z,2.90
2023-10-30T06:59:35.815Z,2.90
2023-10-30T07:02:23.306Z,2.50
2023-10-30T07:05:11.191Z,2.45
2023-10-30T07:07:59.013Z,3.00
2023-10-30T07:10:46.457Z,2.80
2023-10-30T07:13:36.544Z,2.80
2023-10-30T07:16:24.570Z,2.50
2023-10-30T07:19:12.455Z,3.17
2023-10-30T07:22:00.270Z,3.00
2023-10-30T07:24:48.401Z,2.70
2023-10-30T07:27:37.862Z,3.50
2023-10-30T07:30:28.209Z,3.35
2023-10-30T07:33:15.951Z,2.80
2023-10-30T07:36:03.631Z,3.10
2023-10-30T07:38:51.201Z,4.13
2023-10-30T07:41:43.565Z,3.40
2023-10-30T07:44:33.282Z,3.10
2023-10-30T07:47:33.023Z,3.30
2023-10-30T07:50:25.550Z,2.88
2023-10-30T07:53:15.824Z,2.78
2023-10-30T07:56:03.397Z,2.65
2023-10-30T07:58:51.652Z,2.55
2023-10-30T08:01:40.371Z,2.92
2023-10-30T08:04:30.457Z,2.63
2023-10-30T08:07:18.881Z,2.60
2023-10-30T08:10:08.041Z,3.30
2023-10-30T08:12:57.567Z,2.70
2023-10-30T08:15:45.667Z,3.40
2023-10-30T08:18:33.578Z,2.80
2023-10-30T08:21:22.796Z,3.67
2023-10-30T08:24:11.852Z,2.50
2023-10-30T08:27:03.670Z,3.53
2023-10-30T08:29:51.138Z,3.40
2023-10-30T08:32:40.677Z,3.25
2023-10-30T08:35:28.697Z,3.47
2023-10-30T08:38:18.256Z,3.10
2023-10-30T08:41:05.966Z,3.08
2023-10-30T08:43:54.355Z,3.50
2023-10-30T08:46:42.227Z,3.33
2023-10-30T08:49:30.372Z,3.58
2023-10-30T08:52:17.935Z,2.88
2023-10-30T08:55:07.964Z,3.20
2023-10-30T08:57:55.779Z,3.40
2023-10-30T09:00:43.703Z,2.70
2023-10-30T09:03:32.640Z,2.55
2023-10-30T09:06:20.523Z,2.80
2023-10-30T09:09:08.961Z,2.80
2023-10-30T09:11:58.018Z,2.97
2023-10-30T09:14:45.766Z,2.60
2023-10-30T09:17:33.256Z,2.80
2023-10-30T09:20:21.569Z,2.28
2023-10-30T09:23:09.521Z,2.50
2023-10-30T09:25:57.288Z,2.40
2023-10-30T09:28:46.207Z,2.63
2023-10-30T09:31:34.401Z,2.00
2023-10-30T09:34:23.593Z,2.22
2023-10-30T09:37:12.902Z,2.10
2023-10-30T09:40:01.654Z,2.22
2023-10-30T09:42:53.489Z,2.08
2023-10-30T09:45:45.731Z,1.92
2023-10-30T09:48:35.886Z,2.60
2023-10-30T09:51:24.918Z,2.00
2023-10-30T09:54:13.659Z,2.63
2023-10-30T09:57:04.347Z,2.85
2023-10-30T09:59:56.062Z,2.55
2023-10-30T10:02:45.393Z,2.65
2023-10-30T10:05:33.954Z,3.50
2023-10-30T10:08:22.835Z,4.03
2023-10-30T10:11:10.782Z,2.70
2023-10-30T10:14:06.037Z,3.28
2023-10-30T10:16:54.800Z,2.30
2023-10-30T10:19:49.217Z,2.13
2023-10-30T10:22:37.404Z,2.13
2023-10-30T10:25:27.066Z,1.80
2023-10-30T10:28:14.876Z,2.42
2023-10-30T10:31:05.596Z,2.35
2023-10-30T10:33:55.782Z,1.70
2023-10-30T10:36:47.252Z,1.85
2023-10-30T10:39:52.535Z,1.40
2023-10-30T10:42:40.471Z,1.65
2023-10-30T10:45:28.893Z,1.50
2023-10-30T10:48:18.003Z,1.60
2023-10-30T10:51:07.313Z,1.42
2023-10-30T10:53:57.879Z,1.25
2023-10-30T10:56:54.970Z,1.65
2023-10-30T10:59:47.279Z,1.23
2023-10-30T11:02:49.240Z,1.40
2023-10-30T11:05:38.256Z,1.40
2023-10-30T11:08:50.548Z,1.65
2023-10-30T11:11:57.396Z,1.40
2023-10-30T11:14:54.522Z,1.27
2023-10-30T11:17:42.746Z,1.05
2023-10-30T11:20:32.577Z,0.88
2023-10-30T11:23:56.210Z,1.50
2023-10-30T11:26:45.887Z,1.00
2023-10-30T11:29:56.009Z,0.90
2023-10-30T11:32:58.521Z,1.20
2023-10-30T11:35:47.744Z,1.40
2023-10-30T11:38:49.689Z,1.67
2023-10-30T11:41:39.579Z,1.33
2023-10-30T11:44:33.917Z,1.63
2023-10-30T11:47:23.660Z,1.23
2023-10-30T11:50:12.144Z,2.10
2023-10-30T11:53:10.507Z,1.15
2023-10-30T11:55:59.814Z,0.95
2023-10-30T11:58:47.753Z,1.30
2023-10-30T12:01:39.662Z,1.15
2023-10-30T12:04:28.803Z,1.20
2023-10-30T12:07:16.628Z,1.10
2023-10-30T12:10:06.004Z,1.20
2023-10-30T12:12:56.158Z,1.13
2023-10-30T12:15:46.478Z,1.20
2023-10-30T12:18:37.940Z,1.13
2023-10-30T12:21:26.239Z,1.15
2023-10-30T12:24:16.561Z,1.25
2023-10-30T12:27:04.498Z,1.05
2023-10-30T12:29:59.970Z,1.10
2023-10-30T12:32:55.537Z,1.00
2023-10-30T12:35:57.469Z,1.60
2023-10-30T12:38:50.599Z,1.45
2023-10-30T12:41:38.521Z,0.98
2023-10-30T12:44:27.585Z,1.15
2023-10-30T12:47:15.709Z,0.90
2023-10-30T12:50:04.506Z,0.90
2023-10-30T12:52:53.698Z,1.20
2023-10-30T12:55:41.436Z,0.93
2023-10-30T12:58:29.127Z,0.90
2023-10-30T13:01:16.894Z,1.10
2023-10-30T13:04:05.263Z,1.17
2023-10-30T13:06:53.203Z,1.10
2023-10-30T13:09:42.436Z,1.10
2023-10-30T13:12:31.758Z,0.90
2023-10-30T13:15:20.883Z,1.23
2023-10-30T13:18:10.042Z,1.10
2023-10-30T13:20:58.085Z,1.15
2023-10-30T13:23:48.614Z,1.00
2023-10-30T13:26:39.713Z,1.60
2023-10-30T13:29:28.908Z,1.67
2023-10-30T13:32:16.988Z,1.38
2023-10-30T13:35:05.240Z,1.45
2023-10-30T13:37:53.416Z,1.40
2023-10-30T13:40:41.283Z,1.20
2023-10-30T13:43:32.342Z,1.17
2023-10-30T13:46:20.120Z,1.25
2023-10-30T13:49:08.202Z,1.23
2023-10-30T13:51:59.009Z,1.30
2023-10-30T13:54:48.183Z,1.10
2023-10-30T13:57:36.154Z,1.30
2023-10-30T14:00:25.644Z,1.45
2023-10-30T14:03:14.423Z,1.20
2023-10-30T14:06:02.539Z,1.40
2023-10-30T14:08:51.177Z,1.30
2023-10-30T14:11:39.310Z,1.40
2023-10-30T14:14:27.297Z,1.40
2023-10-30T14:17:16.361Z,1.17
2023-10-30T14:20:04.653Z,1.38
2023-10-30T14:22:52.355Z,1.23
2023-10-30T14:25:40.035Z,1.30
2023-10-30T14:28:27.444Z,1.23
2023-10-30T14:31:15.367Z,1.48
2023-10-30T14:34:04.507Z,1.30
2023-10-30T14:36:52.316Z,1.77
2023-10-30T14:39:40.057Z,9.65
2023-10-30T14:42:27.513Z,4.10
2023-10-30T14:45:15.687Z,4.93
2023-10-30T14:48:04.033Z,2.30
2023-10-30T14:50:57.669Z,15.65
2023-10-30T14:53:45.261Z,18.25
2023-10-30T14:56:34.938Z,7.20
2023-10-30T14:59:22.949Z,2.70
2023-10-30T15:02:10.925Z,3.50
2023-10-30T15:05:01.299Z,2.78
2023-10-30T15:07:52.160Z,2.47
2023-10-30T15:10:39.952Z,2.70
2023-10-30T15:13:27.926Z,2.10
2023-10-30T15:16:15.825Z,2.67
2023-10-30T15:19:04.102Z,3.10
2023-10-30T15:21:52.119Z,2.17
2023-10-30T15:24:43.320Z,2.70
2023-10-30T15:27:34.838Z,2.40
2023-10-30T15:30:22.436Z,2.05
2023-10-30T15:33:10.149Z,1.90
2023-10-30T15:35:58.164Z,2.47
2023-10-30T15:38:45.730Z,3.00
2023-10-30T15:41:37.590Z,2.42
2023-10-30T15:44:25.366Z,2.60
2023-10-30T15:47:24.312Z,2.45
2023-10-30T15:50:13.006Z,2.97
2023-10-30T16:01:33.631Z,2.72
2023-10-30T16:04:23.971Z,2.25
2023-10-30T16:07:12.766Z,2.20
2023-10-30T16:12:51.601Z,2.10
2023-10-30T16:15:40.594Z,1.90
2023-10-30T16:18:28.367Z,2.30
2023-10-30T16:21:17.179Z,2.50
2023-10-30T16:24:05.941Z,6.63
2023-10-30T16:26:54.109Z,3.08
2023-10-30T16:29:41.906Z,2.67
2023-10-30T16:32:31.174Z,2.10
2023-10-30T16:35:18.966Z,2.70
2023-10-30T16:38:06.755Z,4.20
2023-10-30T16:40:54.641Z,3.10
2023-10-30T16:43:42.475Z,2.00
2023-10-30T16:46:30.406Z,2.40
2023-10-30T16:49:19.947Z,2.40
2023-10-30T16:52:07.731Z,2.70
2023-10-30T16:54:56.707Z,2.70
2023-10-30T16:57:44.662Z,3.83
2023-10-30T17:00:32.331Z,2.60
2023-10-30T17:03:20.120Z,2.70
2023-10-30T17:06:10.544Z,3.03
2023-10-30T17:08:58.598Z,5.70
2023-10-30T17:11:46.590Z,6.10
2023-10-30T17:14:34.156Z,3.63
2023-10-30T17:17:22.355Z,3.45
2023-10-30T17:20:12.591Z,3.00
2023-10-30T17:23:01.691Z,3.13
2023-10-30T17:25:49.731Z,3.15
2023-10-30T17:28:37.519Z,2.97
2023-10-30T17:31:25.311Z,2.42
2023-10-30T17:34:14.108Z,2.90
2023-10-30T17:37:01.924Z,2.92
2023-10-30T17:39:52.795Z,2.63
2023-10-30T17:42:41.737Z,2.75
2023-10-30T17:45:29.412Z,3.03
2023-10-30T17:48:17.184Z,3.17
2023-10-30T17:51:05.787Z,3.42
2023-10-30T17:53:53.643Z,5.13
2023-10-30T17:56:42.783Z,3.97
2023-10-30T17:59:30.838Z,3.05
2023-10-30T18:02:19.520Z,3.00
2023-10-30T18:05:08.264Z,3.10
2023-10-30T18:07:56.377Z,2.88
2023-10-30T18:10:46.779Z,2.90
2023-10-30T18:13:36.053Z,3.50
2023-10-30T18:16:23.868Z,2.58
2023-10-30T18:19:13.579Z,2.40
2023-10-30T18:22:01.460Z,2.30
2023-10-30T18:24:49.297Z,2.60
2023-10-30T18:27:37.406Z,2.58
2023-10-30T18:30:26.668Z,2.90
2023-10-30T18:33:14.647Z,2.80
2023-10-30T18:36:02.477Z,2.53
2023-10-30T18:38:50.341Z,3.20
2023-10-30T18:41:38.138Z,3.00
2023-10-30T18:44:26.149Z,3.50
2023-10-30T18:47:15.746Z,4.30
2023-10-30T18:50:04.505Z,3.78
2023-10-30T18:52:52.563Z,3.47
2023-10-30T18:55:40.430Z,3.25
2023-10-30T18:58:29.894Z,3.03
2023-10-30T19:01:20.241Z,3.20
2023-10-30T19:04:09.713Z,3.47
2023-10-30T19:06:57.517Z,3.22
2023-10-30T19:09:45.060Z,3.83
2023-10-30T19:12:33.813Z,3.40
2023-10-30T19:15:21.623Z,3.38
2023-10-30T19:18:09.957Z,4.70
2023-10-30T19:20:59.204Z,4.72
2023-10-30T19:23:46.714Z,5.93
2023-10-30T19:26:34.403Z,5.45
2023-10-30T19:29:22.123Z,7.07
2023-10-30T19:32:10.161Z,9.32
2023-10-30T19:34:58.090Z,7.10
2023-10-30T19:37:47.351Z,7.50
2023-10-30T19:40:36.699Z,6.80
2023-10-30T19:43:24.230Z,6.95
2023-10-30T19:46:11.826Z,5.47
2023-10-30T19:48:59.480Z,5.43
2023-10-30T19:51:55.870Z,4.70
2023-10-30T19:54:48.214Z,4.38
2023-10-30T19:57:37.037Z,4.35
2023-10-30T20:00:24.926Z,4.82
2023-10-30T20:03:12.885Z,4.57
2023-10-30T20:06:00.873Z,4.72
2023-10-30T20:08:48.331Z,4.55
2023-10-30T20:11:38.072Z,4.25
2023-10-30T20:14:29.481Z,4.78
2023-10-30T20:17:17.183Z,4.32
2023-10-30T20:20:05.643Z,4.20
2023-10-30T20:22:53.157Z,4.47
2023-10-30T20:25:40.690Z,4.68
2023-10-30T20:28:29.838Z,4.53
2023-10-30T20:31:17.815Z,5.07
2023-10-30T20:34:05.661Z,5.78
2023-10-30T20:36:53.152Z,4.85
2023-10-30T20:39:40.864Z,4.65
2023-10-30T20:42:28.495Z,4.88
2023-10-30T20:45:17.616Z,4.45
2023-10-30T20:48:06.626Z,4.28
2023-10-30T20:50:54.847Z,4.45
2023-10-30T20:53:42.673Z,4.07
2023-10-30T20:56:30.207Z,4.05
2023-10-30T20:59:17.847Z,3.85
2023-10-30T21:02:06.985Z,4.13
2023-10-30T21:04:56.795Z,4.65
2023-10-30T21:07:45.231Z,4.32
2023-10-30T21:10:32.790Z,4.38
2023-10-30T21:13:21.215Z,4.07
2023-10-30T21:16:09.564Z,4.45
2023-10-30T21:18:59.481Z,4.22
2023-10-30T21:21:47.948Z,4.53
2023-10-30T21:24:35.348Z,4.57
2023-10-30T21:27:22.880Z,4.65
2023-10-30T21:30:11.426Z,4.28
2023-10-30T21:32:59.190Z,4.43
2023-10-30T21:35:48.394Z,3.90
2023-10-30T21:38:37.016Z,3.55
2023-10-30T21:41:24.925Z,3.75
2023-10-30T21:44:12.549Z,3.63
2023-10-30T21:47:00.414Z,3.53
2023-10-30T21:49:48.809Z,3.70
2023-10-30T21:52:38.717Z,4.35
2023-10-30T21:55:26.699Z,3.70
2023-10-30T21:58:20.293Z,3.58
2023-10-30T22:01:08.216Z,4.07
2023-10-30T22:03:56.144Z,4.22
2023-10-30T22:06:44.407Z,4.20
2023-10-30T22:09:33.520Z,3.92
2023-10-30T22:12:21.490Z,4.15
2023-10-30T22:15:11.393Z,4.40
2023-10-30T22:17:59.256Z,3.38
2023-10-30T22:20:46.913Z,4.05
2023-10-30T22:23:34.950Z,4.30
2023-10-30T22:26:24.382Z,4.32
2023-10-30T22:29:11.956Z,4.07
2023-10-30T22:31:59.585Z,3.55
2023-10-30T22:34:47.438Z,4.28
2023-10-30T22:37:35.488Z,3.65
2023-10-30T22:40:23.488Z,3.25
2023-10-30T22:43:12.533Z,4.32
2023-10-30T22:46:00.337Z,4.55
2023-10-30T22:48:48.406Z,4.45
2023-10-30T22:51:36.102Z,4.30
2023-10-30T22:54:23.762Z,4.20
2023-10-30T22:57:11.801Z,4.32
2023-10-30T23:00:01.102Z,3.95
2023-10-30T23:02:49.573Z,3.90
2023-10-30T23:05:37.686Z,4.80
2023-10-30T23:08:25.454Z,3.83
2023-10-30T23:11:13.279Z,5.18
2023-10-30T23:14:01.389Z,4.07
2023-10-30T23:16:50.543Z,4.10
2023-10-30T23:19:38.239Z,4.75
2023-10-30T23:22:25.968Z,5.53
2023-10-30T23:25:16.430Z,6.15
2023-10-30T23:28:04.244Z,4.32
2023-10-30T23:30:52.043Z,5.30
2023-10-30T23:33:41.097Z,5.25
2023-10-30T23:36:28.812Z,5.85
2023-10-30T23:39:16.391Z,3.95
2023-10-30T23:42:04.274Z,4.63
2023-10-30T23:44:51.992Z,4.32
2023-10-30T23:47:39.905Z,4.55
2023-10-30T23:50:29.396Z,4.90
2023-10-30T23:53:17.327Z,4.07
2023-10-30T23:56:06.021Z,4.10
2023-10-30T23:58:53.622Z,5.25
